createdAt,value
2019-05-29T00:02:19.222Z,64.50
2019-05-29T00:04:49.331Z,64.80
2019-05-29T00:07:19.459Z,64.10
2019-05-29T00:09:49.570Z,64.70
2019-05-29T00:12:21.343Z,63.90
2019-05-29T00:14:51.449Z,64.60
2019-05-29T00:17:21.366Z,64.10
2019-05-29T00:19:51.591Z,63.80
2019-05-29T00:22:21.606Z,64.30
2019-05-29T00:24:51.524Z,64.60
2019-05-29T00:27:21.646Z,64.00
2019-05-29T00:29:51.761Z,64.70
2019-05-29T00:32:21.680Z,64.30
2019-05-29T00:34:51.794Z,64.40
2019-05-29T00:37:21.710Z,64.30
2019-05-29T00:39:51.724Z,65.30
2019-05-29T00:42:21.744Z,64.50
2019-05-29T00:44:51.870Z,64.30
2019-05-29T00:47:22.197Z,64.20
2019-05-29T00:49:52.104Z,64.00
2019-05-29T00:52:22.221Z,64.00
2019-05-29T00:54:52.345Z,64.30
2019-05-29T00:57:22.462Z,64.50
2019-05-29T00:59:52.582Z,64.30
2019-05-29T01:02:22.705Z,64.50
2019-05-29T01:04:52.616Z,64.80
2019-05-29T01:07:22.736Z,64.50
2019-05-29T01:09:52.856Z,64.30
2019-05-29T01:12:22.984Z,64.40
2019-05-29T01:14:52.890Z,64.30
2019-05-29T01:17:23.014Z,64.70
2019-05-29T01:19:53.138Z,64.40
2019-05-29T01:22:23.255Z,64.80
2019-05-29T01:24:53.381Z,65.20
2019-05-29T01:27:23.437Z,65.50
2019-05-29T01:29:53.314Z,65.30
2019-05-29T01:32:23.728Z,65.50
2019-05-29T01:34:53.936Z,65.70
2019-05-29T01:37:24.365Z,65.50
2019-05-29T01:39:54.499Z,65.70
2019-05-29T01:42:24.619Z,65.80
2019-05-29T01:45:07.355Z,65.70
2019-05-29T01:47:26.092Z,65.90
2019-05-29T01:49:56.207Z,66.10
2019-05-29T01:52:26.331Z,66.30
2019-05-29T01:54:56.448Z,65.80
2019-05-29T01:57:26.566Z,66.40
2019-05-29T01:59:58.326Z,66.10
2019-05-29T02:02:28.328Z,66.80
2019-05-29T02:04:58.358Z,66.20
2019-05-29T02:07:28.481Z,66.20
2019-05-29T02:09:58.600Z,66.00
2019-05-29T02:12:28.931Z,66.30
2019-05-29T02:14:59.863Z,66.40
2019-05-29T02:17:29.984Z,66.80
2019-05-29T02:20:00.110Z,66.60
2019-05-29T02:22:30.223Z,66.90
2019-05-29T02:25:00.140Z,67.00
2019-05-29T02:27:30.266Z,67.60
2019-05-29T02:30:00.383Z,67.10
2019-05-29T02:32:30.498Z,67.20
2019-05-29T02:35:00.621Z,67.40
2019-05-29T02:37:30.946Z,67.30
2019-05-29T02:40:01.068Z,67.20
2019-05-29T02:42:31.387Z,67.20
2019-05-29T02:45:01.508Z,67.40
2019-05-29T02:47:32.035Z,67.50
2019-05-29T02:50:02.157Z,67.70
2019-05-29T02:52:32.274Z,67.90
2019-05-29T02:55:02.400Z,67.90
2019-05-29T02:57:32.515Z,67.80
2019-05-29T03:00:02.635Z,68.10
2019-05-29T03:02:32.551Z,68.30
2019-05-29T03:05:02.493Z,68.30
2019-05-29T03:07:32.786Z,67.90
2019-05-29T03:10:03.942Z,68.20
2019-05-29T03:12:34.063Z,68.00
2019-05-29T03:15:08.272Z,68.40
2019-05-29T03:17:38.392Z,68.10
2019-05-29T03:20:08.917Z,68.60
2019-05-29T03:22:39.040Z,68.20
2019-05-29T03:25:09.461Z,67.90
2019-05-29T03:27:39.483Z,67.90
2019-05-29T03:30:09.499Z,68.00
2019-05-29T03:32:47.362Z,68.10
2019-05-29T03:35:11.995Z,68.20
2019-05-29T03:37:41.912Z,68.40
2019-05-29T03:40:11.825Z,68.20
2019-05-29T03:42:42.148Z,68.20
2019-05-29T03:45:12.683Z,68.20
2019-05-29T03:47:42.696Z,68.10
2019-05-29T03:50:15.607Z,68.10
2019-05-29T03:52:44.482Z,68.00
2019-05-29T03:55:14.800Z,68.20
2019-05-29T03:57:44.918Z,68.50
2019-05-29T04:00:15.543Z,68.30
2019-05-29T04:02:45.783Z,68.60
2019-05-29T04:05:16.310Z,69.00
2019-05-29T04:07:46.425Z,68.90
2019-05-29T04:10:19.618Z,69.00
2019-05-29T04:12:50.558Z,69.30
2019-05-29T04:15:20.884Z,69.50
2019-05-29T04:17:52.643Z,68.90
2019-05-29T04:20:23.176Z,68.90
2019-05-29T04:22:54.522Z,70.50
2019-05-29T04:25:31.295Z,69.20
2019-05-29T04:28:00.523Z,69.50
2019-05-29T04:30:34.475Z,69.90
2019-05-29T04:33:05.651Z,68.90
2019-05-29T04:35:36.898Z,69.20
2019-05-29T04:38:07.528Z,69.40
2019-05-29T04:40:39.339Z,69.30
2019-05-29T04:43:09.409Z,69.40
2019-05-29T04:45:40.181Z,69.60
2019-05-29T04:48:10.468Z,69.90
2019-05-29T04:50:40.866Z,70.20
2019-05-29T04:53:11.120Z,70.40
2019-05-29T04:55:41.035Z,70.40
2019-05-29T04:58:11.156Z,70.30
2019-05-29T05:00:56.037Z,70.80
2019-05-29T05:03:12.627Z,70.50
2019-05-29T05:05:42.745Z,70.80
2019-05-29T05:08:12.923Z,71.20
2019-05-29T05:10:43.282Z,71.20
2019-05-29T05:13:13.515Z,71.50
2019-05-29T05:15:45.274Z,71.60
2019-05-29T05:18:16.011Z,71.70
2019-05-29T05:20:45.925Z,74.10
2019-05-29T05:23:16.045Z,74.10
2019-05-29T05:25:46.165Z,74.10
2019-05-29T05:28:16.079Z,73.50
2019-05-29T05:30:46.201Z,73.50
2019-05-29T05:33:16.327Z,73.60
2019-05-29T05:35:46.442Z,73.60
2019-05-29T05:38:16.562Z,73.50
2019-05-29T05:40:46.684Z,73.60
2019-05-29T05:43:24.194Z,73.70
2019-05-29T05:45:48.358Z,73.60
2019-05-29T05:48:18.304Z,73.50
2019-05-29T05:50:48.397Z,73.60
2019-05-29T05:53:18.718Z,73.20
2019-05-29T05:55:48.640Z,73.40
2019-05-29T05:58:18.761Z,73.40
2019-05-29T06:00:48.877Z,73.30
2019-05-29T06:03:18.993Z,73.40
2019-05-29T06:05:49.114Z,73.50
2019-05-29T06:08:19.028Z,73.30
2019-05-29T06:10:51.227Z,73.50
2019-05-29T06:13:20.709Z,73.50
2019-05-29T06:15:50.734Z,73.50
2019-05-29T06:18:21.927Z,73.20
2019-05-29T06:20:52.500Z,73.40
2019-05-29T06:23:22.618Z,73.90
2019-05-29T06:25:52.741Z,73.10
2019-05-29T06:28:23.680Z,73.20
2019-05-29T06:30:53.804Z,73.70
2019-05-29T06:33:23.919Z,73.00
2019-05-29T06:35:54.045Z,73.00
2019-05-29T06:38:24.161Z,72.80
2019-05-29T06:40:54.281Z,72.60
2019-05-29T06:43:26.039Z,72.90
2019-05-29T06:45:56.621Z,72.70
2019-05-29T06:48:42.586Z,72.00
2019-05-29T06:51:00.304Z,72.30
2019-05-29T06:53:30.411Z,72.50
2019-05-29T06:56:01.840Z,72.20
2019-05-29T06:58:32.295Z,72.20
2019-05-29T07:01:02.420Z,72.10
2019-05-29T07:03:32.534Z,72.00
2019-05-29T07:06:02.702Z,71.90
2019-05-29T07:08:38.686Z,71.90
2019-05-29T07:11:04.325Z,72.00
2019-05-29T07:13:35.469Z,71.40
2019-05-29T07:16:06.410Z,71.50
2019-05-29T07:18:36.655Z,71.60
2019-05-29T07:21:07.059Z,71.40
2019-05-29T07:23:37.224Z,71.10
2019-05-29T07:26:07.297Z,71.10
2019-05-29T07:28:55.493Z,70.70
2019-05-29T07:31:08.977Z,69.90
2019-05-29T07:33:39.090Z,71.10
2019-05-29T07:36:09.211Z,70.30
2019-05-29T07:38:39.676Z,70.80
2019-05-29T07:41:10.067Z,70.10
2019-05-29T07:43:40.394Z,69.70
2019-05-29T07:46:10.719Z,67.80
2019-05-29T07:48:42.454Z,67.90
2019-05-29T07:51:12.391Z,68.30
2019-05-29T07:53:42.326Z,68.40
2019-05-29T07:56:22.047Z,67.00
2019-05-29T07:58:56.805Z,67.80
2019-05-29T08:01:15.536Z,66.10
2019-05-29T08:03:45.656Z,66.80
2019-05-29T08:06:16.393Z,67.90
2019-05-29T08:08:47.476Z,67.20
2019-05-29T08:11:18.066Z,66.20
2019-05-29T08:13:48.199Z,67.00
2019-05-29T08:16:18.304Z,67.00
2019-05-29T08:18:49.464Z,66.30
2019-05-29T08:21:19.981Z,67.10
2019-05-29T08:23:50.765Z,66.60
2019-05-29T08:26:21.452Z,66.50
2019-05-29T08:28:51.576Z,65.40
2019-05-29T08:31:21.896Z,65.40
2019-05-29T08:33:52.016Z,65.50
2019-05-29T08:36:22.138Z,67.10
2019-05-29T08:38:52.462Z,66.40
2019-05-29T08:41:22.582Z,65.40
2019-05-29T08:43:52.999Z,65.40
2019-05-29T08:46:23.238Z,66.10
2019-05-29T08:48:53.355Z,66.40
2019-05-29T08:51:23.483Z,65.60
2019-05-29T08:53:54.662Z,65.40
2019-05-29T08:56:25.159Z,65.20
2019-05-29T08:58:55.266Z,65.00
2019-05-29T09:01:25.394Z,65.80
2019-05-29T09:03:55.519Z,65.60
2019-05-29T09:06:25.637Z,64.90
2019-05-29T09:08:55.750Z,62.80
2019-05-29T09:11:25.773Z,64.80
2019-05-29T09:13:57.218Z,64.60
2019-05-29T09:16:27.135Z,63.80
2019-05-29T09:18:57.254Z,63.30
2019-05-29T09:21:27.200Z,63.60
2019-05-29T09:23:58.750Z,63.80
2019-05-29T09:26:28.851Z,65.30
2019-05-29T09:28:59.020Z,65.20
2019-05-29T09:31:29.291Z,64.50
2019-05-29T09:33:59.418Z,65.20
2019-05-29T09:36:29.539Z,64.90
2019-05-29T09:38:59.559Z,65.60
2019-05-29T09:41:29.773Z,65.00
2019-05-29T09:44:00.415Z,64.80
2019-05-29T09:46:30.838Z,65.30
2019-05-29T09:49:01.724Z,62.10
2019-05-29T09:51:31.893Z,62.20
2019-05-29T09:54:04.687Z,62.90
2019-05-29T09:56:34.801Z,62.30
2019-05-29T09:59:05.124Z,63.00
2019-05-29T10:01:35.247Z,63.00
2019-05-29T10:04:06.360Z,63.30
2019-05-29T10:06:36.715Z,63.20
2019-05-29T10:09:09.704Z,62.90
2019-05-29T10:11:39.819Z,63.30
2019-05-29T10:14:09.940Z,62.90
2019-05-29T10:16:40.061Z,62.70
2019-05-29T10:19:10.181Z,62.00
2019-05-29T10:21:41.437Z,61.70
2019-05-29T10:24:11.855Z,62.20
2019-05-29T10:26:41.977Z,61.50
2019-05-29T10:29:12.095Z,61.10
2019-05-29T10:31:42.299Z,61.10
2019-05-29T10:34:12.546Z,62.60
2019-05-29T10:36:45.892Z,63.20
2019-05-29T10:39:14.014Z,63.30
2019-05-29T10:41:44.707Z,61.60
2019-05-29T10:44:15.074Z,62.00
2019-05-29T10:46:48.423Z,62.60
2019-05-29T10:49:18.179Z,62.10
2019-05-29T10:52:05.658Z,61.40
2019-05-29T10:54:19.854Z,58.50
2019-05-29T10:56:50.829Z,60.30
2019-05-29T10:59:21.322Z,60.70
2019-05-29T11:01:51.827Z,61.20
2019-05-29T11:04:23.818Z,61.50
2019-05-29T11:06:54.898Z,61.80
2019-05-29T11:09:25.694Z,60.80
2019-05-29T11:11:57.374Z,60.40
2019-05-29T11:14:27.374Z,62.30
2019-05-29T11:16:57.668Z,60.50
2019-05-29T11:19:28.019Z,60.90
2019-05-29T11:22:05.704Z,61.60
2019-05-29T11:24:30.105Z,60.70
2019-05-29T11:27:00.432Z,61.00
2019-05-29T11:29:30.556Z,60.00
2019-05-29T11:32:00.872Z,61.00
2019-05-29T11:34:31.004Z,60.00
2019-05-29T11:37:01.131Z,60.10
2019-05-29T11:39:31.644Z,61.20
2019-05-29T11:42:03.030Z,61.40
2019-05-29T11:44:33.333Z,60.10
2019-05-29T11:47:03.441Z,57.80
2019-05-29T11:49:33.564Z,58.00
2019-05-29T11:52:22.632Z,58.60
2019-05-29T11:54:36.883Z,57.60
2019-05-29T11:57:07.200Z,58.80
2019-05-29T11:59:37.323Z,57.20
2019-05-29T12:02:07.441Z,57.20
2019-05-29T12:04:37.559Z,57.70
2019-05-29T12:07:07.687Z,58.60
2019-05-29T12:09:38.025Z,57.60
2019-05-29T12:12:08.336Z,55.20
2019-05-29T12:14:58.058Z,55.40
2019-05-29T12:17:10.419Z,56.50
2019-05-29T12:19:40.530Z,56.40
2019-05-29T12:22:10.856Z,57.30
2019-05-29T12:24:40.976Z,57.60
2019-05-29T12:27:11.299Z,57.20
2019-05-29T12:29:41.425Z,57.90
2019-05-29T12:32:13.328Z,56.60
2019-05-29T12:34:53.063Z,57.30
2019-05-29T12:37:16.694Z,57.40
2019-05-29T12:39:47.024Z,56.40
2019-05-29T12:42:17.137Z,56.30
2019-05-29T12:44:47.287Z,57.30
2019-05-29T12:47:17.384Z,57.80
2019-05-29T12:49:47.562Z,57.90
2019-05-29T12:52:17.618Z,57.70
2019-05-29T12:54:47.738Z,57.10
2019-05-29T12:57:23.447Z,57.90
2019-05-29T12:59:52.297Z,57.80
2019-05-29T13:02:22.419Z,57.00
2019-05-29T13:05:16.025Z,57.70
2019-05-29T13:07:24.282Z,58.60
2019-05-29T13:09:54.403Z,57.60
2019-05-29T13:12:24.514Z,57.20
2019-05-29T13:14:54.638Z,57.90
2019-05-29T13:17:24.756Z,58.00
2019-05-29T13:19:59.550Z,57.90
2019-05-29T13:22:26.435Z,58.20
2019-05-29T13:24:57.355Z,58.70
2019-05-29T13:27:27.694Z,58.60
2019-05-29T13:30:01.502Z,58.50
2019-05-29T13:32:31.618Z,58.60
2019-05-29T13:35:02.242Z,58.50
2019-05-29T13:37:32.678Z,58.00
2019-05-29T13:40:05.534Z,57.70
2019-05-29T13:42:34.763Z,57.50
2019-05-29T13:45:16.810Z,58.30
2019-05-29T13:47:38.691Z,58.70
2019-05-29T13:50:12.029Z,57.90
2019-05-29T13:52:40.984Z,58.20
2019-05-29T13:55:11.514Z,57.30
2019-05-29T13:57:41.628Z,57.50
2019-05-29T14:00:32.158Z,57.20
2019-05-29T14:02:46.383Z,57.10
2019-05-29T14:05:17.526Z,56.60
2019-05-29T14:07:47.657Z,56.70
2019-05-29T14:10:18.787Z,56.20
2019-05-29T14:12:48.913Z,56.00
2019-05-29T14:15:20.058Z,56.70
2019-05-29T14:17:50.083Z,56.60
2019-05-29T14:20:20.293Z,56.20
2019-05-29T14:22:50.277Z,56.70
2019-05-29T14:25:20.488Z,57.10
2019-05-29T14:27:50.671Z,57.60
2019-05-29T14:30:21.593Z,57.90
2019-05-29T14:32:51.711Z,57.30
2019-05-29T14:35:21.837Z,57.90
2019-05-29T14:37:52.184Z,57.50
2019-05-29T14:40:22.384Z,56.70
2019-05-29T14:42:53.633Z,57.70
2019-05-29T14:45:23.748Z,57.70
2019-05-29T14:47:53.870Z,57.20
2019-05-29T14:50:24.191Z,57.40
2019-05-29T14:52:54.313Z,56.70
2019-05-29T14:55:24.431Z,56.80
2019-05-29T14:57:54.510Z,56.90
2019-05-29T15:00:25.912Z,56.30
2019-05-29T15:02:56.225Z,56.50
2019-05-29T15:05:29.012Z,56.90
2019-05-29T15:07:59.134Z,56.80
2019-05-29T15:10:29.457Z,56.30
2019-05-29T15:12:59.989Z,55.80
2019-05-29T15:15:30.312Z,55.30
2019-05-29T15:18:00.429Z,56.10
2019-05-29T15:20:30.553Z,55.50
2019-05-29T15:23:00.687Z,55.20
2019-05-29T15:25:30.795Z,53.90
2019-05-29T15:28:00.918Z,54.10
2019-05-29T15:30:31.032Z,54.10
2019-05-29T15:33:01.157Z,56.00
2019-05-29T15:35:31.277Z,55.50
2019-05-29T15:38:01.193Z,55.20
2019-05-29T15:40:31.307Z,55.50
2019-05-29T15:43:01.429Z,56.10
2019-05-29T15:45:31.657Z,54.80
2019-05-29T15:48:02.081Z,55.00
2019-05-29T15:50:32.340Z,55.00
2019-05-29T15:53:02.532Z,55.50
2019-05-29T15:55:34.862Z,56.10
2019-05-29T15:58:04.198Z,54.70
2019-05-29T16:00:34.318Z,54.70
2019-05-29T16:03:04.649Z,54.80
2019-05-29T16:05:34.762Z,54.60
2019-05-29T16:08:05.295Z,54.90
2019-05-29T16:10:37.057Z,54.00
2019-05-29T16:13:08.598Z,53.20
2019-05-29T16:15:38.728Z,53.90
2019-05-29T16:18:21.856Z,53.40
2019-05-29T16:20:40.603Z,52.90
2019-05-29T16:23:10.856Z,54.40
2019-05-29T16:25:41.253Z,54.80
2019-05-29T16:28:13.082Z,53.90
2019-05-29T16:30:43.133Z,54.70
2019-05-29T16:33:13.268Z,55.50
2019-05-29T16:35:43.381Z,54.00
2019-05-29T16:38:14.109Z,54.10
2019-05-29T16:40:44.463Z,53.80
2019-05-29T16:43:14.357Z,54.60
2019-05-29T16:45:44.484Z,53.70
2019-05-29T16:48:14.651Z,54.00
2019-05-29T16:50:44.918Z,54.10
2019-05-29T16:53:15.036Z,54.90
2019-05-29T16:55:53.501Z,54.80
2019-05-29T16:58:17.414Z,54.00
2019-05-29T17:00:47.914Z,53.00
2019-05-29T17:03:17.984Z,52.10
2019-05-29T17:05:48.096Z,52.20
2019-05-29T17:08:18.136Z,52.90
2019-05-29T17:10:48.337Z,53.00
2019-05-29T17:13:18.663Z,53.20
2019-05-29T17:15:48.992Z,52.80
2019-05-29T17:18:19.107Z,53.30
2019-05-29T17:20:49.437Z,52.50
2019-05-29T17:23:20.796Z,52.10
2019-05-29T17:25:50.931Z,52.10
2019-05-29T17:28:24.536Z,52.10
2019-05-29T17:30:52.580Z,52.50
2019-05-29T17:33:23.135Z,52.30
2019-05-29T17:35:53.434Z,51.10
2019-05-29T17:38:26.627Z,51.10
2019-05-29T17:40:56.748Z,51.40
2019-05-29T17:43:28.629Z,51.70
2019-05-29T17:45:58.425Z,51.90
2019-05-29T17:48:28.539Z,52.00
2019-05-29T17:50:58.665Z,52.40
2019-05-29T17:53:28.783Z,52.00
2019-05-29T17:55:58.804Z,52.30
2019-05-29T17:58:28.954Z,52.50
2019-05-29T18:00:59.149Z,51.80
2019-05-29T18:03:29.266Z,52.10
2019-05-29T18:05:59.385Z,51.50
2019-05-29T18:08:29.510Z,51.50
2019-05-29T18:10:59.831Z,50.60
2019-05-29T18:13:30.225Z,51.30
2019-05-29T18:16:00.276Z,51.70
2019-05-29T18:18:30.399Z,51.30
2019-05-29T18:21:00.521Z,51.30
2019-05-29T18:23:30.639Z,51.80
2019-05-29T18:26:00.971Z,51.90
2019-05-29T18:28:31.097Z,51.80
2019-05-29T18:31:00.999Z,52.30
2019-05-29T18:33:31.121Z,52.60
2019-05-29T18:36:01.241Z,52.60
2019-05-29T18:38:32.650Z,52.20
2019-05-29T18:41:03.147Z,52.60
2019-05-29T18:43:34.061Z,52.40
2019-05-29T18:46:04.181Z,52.70
2019-05-29T18:48:34.299Z,52.90
2019-05-29T18:51:04.632Z,53.40
2019-05-29T18:53:34.961Z,53.00
2019-05-29T18:56:05.276Z,52.70
2019-05-29T18:58:35.398Z,52.80
2019-05-29T19:01:05.516Z,53.60
2019-05-29T19:03:35.843Z,53.30
2019-05-29T19:06:06.378Z,53.50
2019-05-29T19:08:36.492Z,53.10
2019-05-29T19:11:06.625Z,53.30
2019-05-29T19:13:36.939Z,53.20
2019-05-29T19:16:08.904Z,53.50
2019-05-29T19:18:39.026Z,53.30
2019-05-29T19:21:09.146Z,53.20
2019-05-29T19:23:39.265Z,53.50
2019-05-29T19:26:09.388Z,53.90
2019-05-29T19:28:40.646Z,53.40
2019-05-29T19:31:10.772Z,53.70
2019-05-29T19:33:40.877Z,53.40
2019-05-29T19:36:10.995Z,53.30
2019-05-29T19:38:41.121Z,53.80
2019-05-29T19:41:11.231Z,53.50
2019-05-29T19:43:41.558Z,53.50
2019-05-29T19:46:11.752Z,53.30
2019-05-29T19:48:41.692Z,52.90
2019-05-29T19:51:11.917Z,53.10
2019-05-29T19:53:42.038Z,52.90
2019-05-29T19:56:12.164Z,53.00
2019-05-29T19:58:42.280Z,52.80
2019-05-29T20:01:12.604Z,52.80
2019-05-29T20:03:42.728Z,52.90
2019-05-29T20:06:12.844Z,52.90
2019-05-29T20:08:42.974Z,53.30
2019-05-29T20:11:13.084Z,53.10
2019-05-29T20:13:43.203Z,53.60
2019-05-29T20:16:13.328Z,53.40
2019-05-29T20:18:43.443Z,53.60
2019-05-29T20:21:13.573Z,53.50
2019-05-29T20:23:43.683Z,53.40
2019-05-29T20:26:13.810Z,53.30
2019-05-29T20:28:43.923Z,53.30
2019-05-29T20:31:14.043Z,53.00
2019-05-29T20:33:44.165Z,53.60
2019-05-29T20:36:14.284Z,53.20
2019-05-29T20:38:44.406Z,53.50
2019-05-29T20:41:14.733Z,53.60
2019-05-29T20:43:44.852Z,53.60
2019-05-29T20:46:14.972Z,53.60
2019-05-29T20:48:45.094Z,53.30
2019-05-29T20:51:15.214Z,53.70
2019-05-29T20:53:45.333Z,53.70
2019-05-29T20:56:15.358Z,53.30
2019-05-29T20:58:45.369Z,53.60
2019-05-29T21:01:15.493Z,53.70
2019-05-29T21:03:45.616Z,53.80
2019-05-29T21:06:15.728Z,53.80
2019-05-29T21:08:45.854Z,54.00
2019-05-29T21:11:16.181Z,54.30
2019-05-29T21:13:46.297Z,54.00
2019-05-29T21:16:16.416Z,54.50
2019-05-29T21:18:46.538Z,54.20
2019-05-29T21:21:16.863Z,54.30
2019-05-29T21:23:47.103Z,54.20
2019-05-29T21:26:17.125Z,54.20
2019-05-29T21:28:50.603Z,54.50
2019-05-29T21:31:19.189Z,54.60
2019-05-29T21:33:49.514Z,54.80
2019-05-29T21:36:19.842Z,54.60
2019-05-29T21:38:49.957Z,55.20
2019-05-29T21:41:20.289Z,54.80
2019-05-29T21:43:50.401Z,55.40
2019-05-29T21:46:20.522Z,54.90
2019-05-29T21:48:52.913Z,55.60
2019-05-29T21:51:23.248Z,55.70
2019-05-29T21:53:54.873Z,55.50
2019-05-29T21:56:25.199Z,55.90
2019-05-29T21:59:03.524Z,55.70
2019-05-29T22:01:28.221Z,55.90
2019-05-29T22:03:58.435Z,56.60
2019-05-29T22:06:28.556Z,55.80
2019-05-29T22:08:59.285Z,55.70
2019-05-29T22:11:29.412Z,55.70
2019-05-29T22:14:00.595Z,55.80
2019-05-29T22:16:30.878Z,56.00
2019-05-29T22:19:03.792Z,56.30
2019-05-29T22:21:32.552Z,56.00
2019-05-29T22:24:02.682Z,55.60
2019-05-29T22:26:32.800Z,55.80
2019-05-29T22:29:17.111Z,56.10
2019-05-29T22:31:34.476Z,56.20
2019-05-29T22:34:04.794Z,56.20
2019-05-29T22:36:34.916Z,55.80
2019-05-29T22:39:06.414Z,55.90
2019-05-29T22:41:36.591Z,56.20
2019-05-29T22:44:06.714Z,56.50
2019-05-29T22:46:36.833Z,56.50
2019-05-29T22:49:06.957Z,56.40
2019-05-29T22:51:37.483Z,56.50
2019-05-29T22:54:07.607Z,56.60
2019-05-29T22:56:37.534Z,56.70
2019-05-29T22:59:07.645Z,56.70
2019-05-29T23:01:37.765Z,56.40
2019-05-29T23:04:09.539Z,56.50
2019-05-29T23:06:39.646Z,57.00
2019-05-29T23:09:09.765Z,56.40
2019-05-29T23:11:39.887Z,56.20
2019-05-29T23:14:10.005Z,56.80
2019-05-29T23:16:40.205Z,56.50
2019-05-29T23:19:10.452Z,56.40
2019-05-29T23:21:40.575Z,56.10
2019-05-29T23:24:10.695Z,56.60
2019-05-29T23:26:40.816Z,56.30
2019-05-29T23:29:10.834Z,56.80
2019-05-29T23:31:41.062Z,56.70
2019-05-29T23:34:11.180Z,56.70
2019-05-29T23:36:41.307Z,56.40
2019-05-29T23:39:11.420Z,56.90
2019-05-29T23:41:41.541Z,56.60
2019-05-29T23:44:11.667Z,56.90
2019-05-29T23:46:41.784Z,56.90
2019-05-29T23:49:11.908Z,57.10
2019-05-29T23:51:41.826Z,57.00
2019-05-29T23:54:12.148Z,57.00
2019-05-29T23:56:42.267Z,56.90
2019-05-29T23:59:12.389Z,56.90
